sensor_id;sensor_type;location;lat;lon;timestamp;pressure;altitude;pressure_sealevel;temperature;humidity
54808;BME280;40708;50.364;7.550;2023-05-07T00:00:45;102513.50;;;13.96;100.00
54808;BME280;40708;50.364;7.550;2023-05-07T00:03:11;102523.28;;;13.97;100.00
54808;BME280;40708;50.364;7.550;2023-05-07T00:05:36;102524.19;;;13.98;100.00
54808;BME280;40708;50.364;7.550;2023-05-07T00:08:03;102528.63;;;13.97;100.00
54808;BME280;40708;50.364;7.550;2023-05-07T00:10:28;102531.34;;;13.99;100.00
54808;BME280;40708;50.364;7.550;2023-05-07T00:12:53;102538.44;;;13.98;100.00
54808;BME280;40708;50.364;7.550;2023-05-07T00:15:19;102540.25;;;13.99;100.00
54808;BME280;40708;50.364;7.550;2023-05-07T00:17:44;102547.41;;;14.02;100.00
54808;BME280;40708;50.364;7.550;2023-05-07T00:20:10;102553.69;;;14.05;100.00
54808;BME280;40708;50.364;7.550;2023-05-07T00:22:35;102544.84;;;14.08;100.00
54808;BME280;40708;50.364;7.550;2023-05-07T00:25:01;102552.84;;;14.08;100.00
54808;BME280;40708;50.364;7.550;2023-05-07T00:27:26;102552.91;;;14.09;100.00
54808;BME280;40708;50.364;7.550;2023-05-07T00:29:51;102550.19;;;14.08;100.00
54808;BME280;40708;50.364;7.550;2023-05-07T00:32:16;102551.06;;;14.08;100.00
54808;BME280;40708;50.364;7.550;2023-05-07T00:34:43;102553.75;;;14.08;100.00
54808;BME280;40708;50.364;7.550;2023-05-07T00:37:08;102544.88;;;14.09;100.00
54808;BME280;40708;50.364;7.550;2023-05-07T00:39:34;102551.97;;;14.07;100.00
54808;BME280;40708;50.364;7.550;2023-05-07T00:41:59;102558.19;;;14.08;100.00
54808;BME280;40708;50.364;7.550;2023-05-07T00:44:25;102571.53;;;14.08;100.00
54808;BME280;40708;50.364;7.550;2023-05-07T00:46:51;102583.19;;;14.11;100.00
54808;BME280;40708;50.364;7.550;2023-05-07T00:49:17;102594.78;;;14.13;100.00
54808;BME280;40708;50.364;7.550;2023-05-07T00:51:43;102600.97;;;14.11;100.00
54808;BME280;40708;50.364;7.550;2023-05-07T00:54:09;102598.28;;;14.11;100.00
54808;BME280;40708;50.364;7.550;2023-05-07T00:56:34;102603.69;;;14.14;100.00
54808;BME280;40708;50.364;7.550;2023-05-07T00:59:01;102605.53;;;14.16;100.00
54808;BME280;40708;50.364;7.550;2023-05-07T01:01:27;102610.03;;;14.19;100.00
54808;BME280;40708;50.364;7.550;2023-05-07T01:03:53;102612.75;;;14.20;100.00
54808;BME280;40708;50.364;7.550;2023-05-07T01:06:18;102619.00;;;14.22;100.00
54808;BME280;40708;50.364;7.550;2023-05-07T01:08:46;102623.47;;;14.23;100.00
54808;BME280;40708;50.364;7.550;2023-05-07T01:11:12;102611.97;;;14.26;100.00
54808;BME280;40708;50.364;7.550;2023-05-07T01:13:38;102621.75;;;14.27;100.00
54808;BME280;40708;50.364;7.550;2023-05-07T01:16:05;102614.63;;;14.26;100.00
54808;BME280;40708;50.364;7.550;2023-05-07T01:18:30;102623.56;;;14.28;100.00
54808;BME280;40708;50.364;7.550;2023-05-07T01:20:58;102635.16;;;14.28;100.00
54808;BME280;40708;50.364;7.550;2023-05-07T01:23:25;102628.91;;;14.28;100.00
54808;BME280;40708;50.364;7.550;2023-05-07T01:25:52;102645.78;;;14.27;100.00
54808;BME280;40708;50.364;7.550;2023-05-07T01:28:18;102658.34;;;14.31;100.00
54808;BME280;40708;50.364;7.550;2023-05-07T01:30:46;102665.44;;;14.29;100.00
54808;BME280;40708;50.364;7.550;2023-05-07T01:33:15;102673.47;;;14.30;100.00
54808;BME280;40708;50.364;7.550;2023-05-07T01:35:43;102669.97;;;14.32;100.00
54808;BME280;40708;50.364;7.550;2023-05-07T01:38:11;102662.84;;;14.32;100.00
54808;BME280;40708;50.364;7.550;2023-05-07T01:40:37;102666.34;;;14.31;100.00
54808;BME280;40708;50.364;7.550;2023-05-07T01:43:02;102660.03;;;14.27;100.00
54808;BME280;40708;50.364;7.550;2023-05-07T01:45:30;102661.78;;;14.25;100.00
54808;BME280;40708;50.364;7.550;2023-05-07T01:47:56;102669.81;;;14.27;100.00
54808;BME280;40708;50.364;7.550;2023-05-07T01:50:23;102675.19;;;14.28;100.00
54808;BME280;40708;50.364;7.550;2023-05-07T01:52:50;102677.81;;;14.25;100.00
54808;BME280;40708;50.364;7.550;2023-05-07T01:55:15;102679.50;;;14.22;100.00
54808;BME280;40708;50.364;7.550;2023-05-07T01:57:41;102688.41;;;14.21;100.00
54808;BME280;40708;50.364;7.550;2023-05-07T02:00:07;102692.84;;;14.22;100.00
54808;BME280;40708;50.364;7.550;2023-05-07T02:02:33;102691.94;;;14.20;100.00
54808;BME280;40708;50.364;7.550;2023-05-07T02:04:59;102691.03;;;14.19;100.00
54808;BME280;40708;50.364;7.550;2023-05-07T02:07:25;102694.59;;;14.20;100.00
54808;BME280;40708;50.364;7.550;2023-05-07T02:09:51;102687.50;;;14.20;100.00
54808;BME280;40708;50.364;7.550;2023-05-07T02:12:16;102695.47;;;14.19;100.00
54808;BME280;40708;50.364;7.550;2023-05-07T02:14:41;102692.78;;;14.19;100.00
54808;BME280;40708;50.364;7.550;2023-05-07T02:17:07;102695.47;;;14.19;100.00
54808;BME280;40708;50.364;7.550;2023-05-07T02:19:32;102696.38;;;14.19;100.00
54808;BME280;40708;50.364;7.550;2023-05-07T02:21:58;102694.59;;;14.18;100.00
54808;BME280;40708;50.364;7.550;2023-05-07T02:24:23;102692.72;;;14.16;100.00
54808;BME280;40708;50.364;7.550;2023-05-07T02:26:48;102690.00;;;14.13;100.00
54808;BME280;40708;50.364;7.550;2023-05-07T02:29:14;102689.03;;;14.09;100.00
54808;BME280;40708;50.364;7.550;2023-05-07T02:31:39;102705.06;;;14.11;100.00
54808;BME280;40708;50.364;7.550;2023-05-07T02:34:04;102700.63;;;14.11;100.00
54808;BME280;40708;50.364;7.550;2023-05-07T02:36:29;102710.41;;;14.11;100.00
54808;BME280;40708;50.364;7.550;2023-05-07T02:38:55;102700.63;;;14.10;100.00
54808;BME280;40708;50.364;7.550;2023-05-07T02:41:20;102705.06;;;14.09;100.00
54808;BME280;40708;50.364;7.550;2023-05-07T02:43:46;102703.28;;;14.10;100.00
54808;BME280;40708;50.364;7.550;2023-05-07T02:46:11;102708.56;;;14.08;100.00
54808;BME280;40708;50.364;7.550;2023-05-07T02:48:36;102704.13;;;14.07;100.00
54808;BME280;40708;50.364;7.550;2023-05-07T02:51:02;102713.00;;;14.06;100.00
54808;BME280;40708;50.364;7.550;2023-05-07T02:53:28;102725.34;;;14.03;100.00
54808;BME280;40708;50.364;7.550;2023-05-07T02:55:56;102725.25;;;13.98;100.00
54808;BME280;40708;50.364;7.550;2023-05-07T02:58:22;102723.34;;;13.91;100.00
54808;BME280;40708;50.364;7.550;2023-05-07T03:00:47;102734.84;;;13.89;100.00
54808;BME280;40708;50.364;7.550;2023-05-07T03:03:13;102732.97;;;13.86;100.00
54808;BME280;40708;50.364;7.550;2023-05-07T03:05:38;102747.13;;;13.82;100.00
54808;BME280;40708;50.364;7.550;2023-05-07T03:08:03;102743.41;;;13.76;100.00
54808;BME280;40708;50.364;7.550;2023-05-07T03:10:29;102726.47;;;13.73;100.00
54808;BME280;40708;50.364;7.550;2023-05-07T03:12:55;102726.22;;;13.64;100.00
54808;BME280;40708;50.364;7.550;2023-05-07T03:15:20;102715.44;;;13.58;100.00
54808;BME280;40708;50.364;7.550;2023-05-07T03:17:46;102724.28;;;13.56;100.00
54808;BME280;40708;50.364;7.550;2023-05-07T03:20:12;102724.22;;;13.54;100.00
54808;BME280;40708;50.364;7.550;2023-05-07T03:22:38;102732.13;;;13.50;100.00
54808;BME280;40708;50.364;7.550;2023-05-07T03:25:03;102739.19;;;13.48;100.00
54808;BME280;40708;50.364;7.550;2023-05-07T03:27:29;102746.22;;;13.46;100.00
54808;BME280;40708;50.364;7.550;2023-05-07T03:29:54;102739.06;;;13.43;100.00
54808;BME280;40708;50.364;7.550;2023-05-07T03:32:20;102731.94;;;13.42;100.00
54808;BME280;40708;50.364;7.550;2023-05-07T03:34:45;102721.13;;;13.38;100.00
54808;BME280;40708;50.364;7.550;2023-05-07T03:37:11;102732.63;;;13.35;100.00
54808;BME280;40708;50.364;7.550;2023-05-07T03:39:36;102736.13;;;13.33;100.00
54808;BME280;40708;50.364;7.550;2023-05-07T03:42:01;102747.63;;;13.32;100.00
54808;BME280;40708;50.364;7.550;2023-05-07T03:44:27;102743.22;;;13.32;100.00
54808;BME280;40708;50.364;7.550;2023-05-07T03:46:52;102760.13;;;13.33;100.00
54808;BME280;40708;50.364;7.550;2023-05-07T03:49:18;102749.50;;;13.34;100.00
54808;BME280;40708;50.364;7.550;2023-05-07T03:51:43;102742.38;;;13.33;100.00
54808;BME280;40708;50.364;7.550;2023-05-07T03:54:08;102747.63;;;13.32;100.00
54808;BME280;40708;50.364;7.550;2023-05-07T03:56:33;102752.91;;;13.29;100.00
54808;BME280;40708;50.364;7.550;2023-05-07T03:59:00;102766.25;;;13.29;100.00
54808;BME280;40708;50.364;7.550;2023-05-07T04:01:25;102776.09;;;13.31;100.00
54808;BME280;40708;50.364;7.550;2023-05-07T04:03:50;102777.78;;;13.29;100.00
54808;BME280;40708;50.364;7.550;2023-05-07T04:06:16;102777.75;;;13.28;100.00
54808;BME280;40708;50.364;7.550;2023-05-07T04:08:42;102781.19;;;13.24;100.00
54808;BME280;40708;50.364;7.550;2023-05-07T04:11:07;102781.16;;;13.22;100.00
54808;BME280;40708;50.364;7.550;2023-05-07T04:13:33;102797.25;;;13.25;100.00
54808;BME280;40708;50.364;7.550;2023-05-07T04:16:00;102809.75;;;13.28;100.00
54808;BME280;40708;50.364;7.550;2023-05-07T04:18:25;102824.94;;;13.30;100.00
54808;BME280;40708;50.364;7.550;2023-05-07T04:20:51;102848.16;;;13.34;100.00
54808;BME280;40708;50.364;7.550;2023-05-07T04:23:16;102848.19;;;13.36;100.00
54808;BME280;40708;50.364;7.550;2023-05-07T04:25:41;102859.88;;;13.41;100.00
54808;BME280;40708;50.364;7.550;2023-05-07T04:28:07;102841.31;;;13.44;100.00
54808;BME280;40708;50.364;7.550;2023-05-07T04:30:32;102861.00;;;13.49;100.00
54808;BME280;40708;50.364;7.550;2023-05-07T04:32:57;102858.50;;;13.55;100.00
54808;BME280;40708;50.364;7.550;2023-05-07T04:35:23;102866.66;;;13.61;100.00
54808;BME280;40708;50.364;7.550;2023-05-07T04:37:48;102863.25;;;13.66;100.00
54808;BME280;40708;50.364;7.550;2023-05-07T04:40:13;102872.28;;;13.71;100.00
54808;BME280;40708;50.364;7.550;2023-05-07T04:42:39;102873.22;;;13.73;100.00
54808;BME280;40708;50.364;7.550;2023-05-07T04:45:04;102881.31;;;13.78;100.00
54808;BME280;40708;50.364;7.550;2023-05-07T04:47:30;102890.44;;;13.86;100.00
54808;BME280;40708;50.364;7.550;2023-05-07T04:49:55;102887.84;;;13.89;100.00
54808;BME280;40708;50.364;7.550;2023-05-07T04:52:21;102905.84;;;13.96;100.00
54808;BME280;40708;50.364;7.550;2023-05-07T04:54:46;102903.25;;;13.99;100.00
54808;BME280;40708;50.364;7.550;2023-05-07T04:57:11;102892.50;;;13.98;100.00
54808;BME280;40708;50.364;7.550;2023-05-07T04:59:37;102904.19;;;14.01;100.00
54808;BME280;40708;50.364;7.550;2023-05-07T05:02:02;102916.78;;;14.07;100.00
54808;BME280;40708;50.364;7.550;2023-05-07T05:04:29;102908.84;;;14.10;100.00
54808;BME280;40708;50.364;7.550;2023-05-07T05:06:54;102908.13;;;14.17;100.00
54808;BME280;40708;50.364;7.550;2023-05-07T05:09:20;102909.19;;;14.23;100.00
54808;BME280;40708;50.364;7.550;2023-05-07T05:11:45;102903.97;;;14.29;100.00
54808;BME280;40708;50.364;7.550;2023-05-07T05:14:10;102882.66;;;14.31;100.00
54808;BME280;40708;50.364;7.550;2023-05-07T05:16:35;102870.41;;;14.38;100.00
54808;BME280;40708;50.364;7.550;2023-05-07T05:19:01;102868.75;;;14.44;100.00
54808;BME280;40708;50.364;7.550;2023-05-07T05:21:27;102858.91;;;14.42;100.00
54808;BME280;40708;50.364;7.550;2023-05-07T05:23:52;102831.38;;;14.44;100.00
54808;BME280;40708;50.364;7.550;2023-05-07T05:26:17;102816.41;;;14.52;100.00
54808;BME280;40708;50.364;7.550;2023-05-07T05:28:43;102792.56;;;14.61;100.00
54808;BME280;40708;50.364;7.550;2023-05-07T05:31:08;102791.09;;;14.77;100.00
54808;BME280;40708;50.364;7.550;2023-05-07T05:33:34;102767.91;;;14.74;100.00
54808;BME280;40708;50.364;7.550;2023-05-07T05:36:00;102773.56;;;14.91;100.00
54808;BME280;40708;50.364;7.550;2023-05-07T05:38:25;102780.75;;;15.40;100.00
54808;BME280;40708;50.364;7.550;2023-05-07T05:40:51;102770.06;;;15.95;100.00
54808;BME280;40708;50.364;7.550;2023-05-07T05:43:16;102725.84;;;16.23;100.00
54808;BME280;40708;50.364;7.550;2023-05-07T05:45:41;102586.72;;;16.37;100.00
54808;BME280;40708;50.364;7.550;2023-05-07T05:48:06;102469.09;;;16.64;100.00
54808;BME280;40708;50.364;7.550;2023-05-07T05:50:33;102359.47;;;17.26;100.00
54808;BME280;40708;50.364;7.550;2023-05-07T05:53:00;102090.28;;;17.69;100.00
54808;BME280;40708;50.364;7.550;2023-05-07T05:55:26;101863.00;;;18.79;100.00
54808;BME280;40708;50.364;7.550;2023-05-07T05:57:51;101549.94;;;19.47;100.00
54808;BME280;40708;50.364;7.550;2023-05-07T06:00:17;101191.63;;;19.96;100.00
54808;BME280;40708;50.364;7.550;2023-05-07T06:02:42;100996.69;;;20.00;100.00
54808;BME280;40708;50.364;7.550;2023-05-07T06:05:09;100906.03;;;20.56;100.00
54808;BME280;40708;50.364;7.550;2023-05-07T06:07:34;100797.66;;;20.96;100.00
54808;BME280;40708;50.364;7.550;2023-05-07T06:10:00;100762.22;;;20.82;100.00
54808;BME280;40708;50.364;7.550;2023-05-07T06:12:26;100706.03;;;21.18;100.00
54808;BME280;40708;50.364;7.550;2023-05-07T06:14:51;100689.56;;;21.69;100.00
54808;BME280;40708;50.364;7.550;2023-05-07T06:17:17;100643.47;;;22.15;100.00
54808;BME280;40708;50.364;7.550;2023-05-07T06:19:42;100599.34;;;22.55;100.00
54808;BME280;40708;50.364;7.550;2023-05-07T06:22:08;100590.69;;;22.47;100.00
54808;BME280;40708;50.364;7.550;2023-05-07T06:24:33;100566.16;;;21.92;100.00
54808;BME280;40708;50.364;7.550;2023-05-07T06:26:58;100595.22;;;21.86;100.00
54808;BME280;40708;50.364;7.550;2023-05-07T06:29:24;100585.69;;;21.35;100.00
54808;BME280;40708;50.364;7.550;2023-05-07T06:31:52;100605.47;;;20.91;100.00
54808;BME280;40708;50.364;7.550;2023-05-07T06:34:17;100593.38;;;22.08;100.00
54808;BME280;40708;50.364;7.550;2023-05-07T06:36:43;100573.88;;;22.40;100.00
54808;BME280;40708;50.364;7.550;2023-05-07T06:39:08;100545.94;;;22.21;100.00
54808;BME280;40708;50.364;7.550;2023-05-07T06:41:33;100560.41;;;22.20;100.00
54808;BME280;40708;50.364;7.550;2023-05-07T06:44:00;100560.88;;;22.48;100.00
54808;BME280;40708;50.364;7.550;2023-05-07T06:46:27;100553.03;;;22.24;100.00
54808;BME280;40708;50.364;7.550;2023-05-07T06:48:52;100580.88;;;21.64;100.00
54808;BME280;40708;50.364;7.550;2023-05-07T06:51:17;100565.28;;;21.92;100.00
54808;BME280;40708;50.364;7.550;2023-05-07T06:53:43;100578.78;;;21.92;100.00
54808;BME280;40708;50.364;7.550;2023-05-07T06:56:08;100593.91;;;21.74;100.00
54808;BME280;40708;50.364;7.550;2023-05-07T06:58:33;100575.44;;;21.85;100.00
54808;BME280;40708;50.364;7.550;2023-05-07T07:00:59;100582.97;;;21.99;100.00
54808;BME280;40708;50.364;7.550;2023-05-07T07:03:25;100568.44;;;22.02;100.00
54808;BME280;40708;50.364;7.550;2023-05-07T07:05:54;100560.16;;;22.06;100.00
54808;BME280;40708;50.364;7.550;2023-05-07T07:08:19;100561.47;;;21.76;100.00
54808;BME280;40708;50.364;7.550;2023-05-07T07:10:46;100563.72;;;21.86;100.00
54808;BME280;40708;50.364;7.550;2023-05-07T07:13:12;100577.19;;;21.45;100.00
54808;BME280;40708;50.364;7.550;2023-05-07T07:15:37;100567.88;;;21.31;100.00
54808;BME280;40708;50.364;7.550;2023-05-07T07:18:02;100566.53;;;21.42;100.00
54808;BME280;40708;50.364;7.550;2023-05-07T07:20:28;100587.31;;;20.73;100.00
54808;BME280;40708;50.364;7.550;2023-05-07T07:22:53;100586.22;;;20.77;100.00
54808;BME280;40708;50.364;7.550;2023-05-07T07:25:18;100605.03;;;20.32;100.00
54808;BME280;40708;50.364;7.550;2023-05-07T07:27:44;100620.19;;;20.59;100.00
54808;BME280;40708;50.364;7.550;2023-05-07T07:30:09;100616.00;;;21.20;100.00
54808;BME280;40708;50.364;7.550;2023-05-07T07:32:35;100615.81;;;21.47;100.00
54808;BME280;40708;50.364;7.550;2023-05-07T07:35:00;100576.44;;;21.63;100.00
54808;BME280;40708;50.364;7.550;2023-05-07T07:37:26;100582.31;;;21.72;100.00
54808;BME280;40708;50.364;7.550;2023-05-07T07:39:51;100577.09;;;21.89;100.00
54808;BME280;40708;50.364;7.550;2023-05-07T07:42:17;100546.31;;;22.32;100.00
54808;BME280;40708;50.364;7.550;2023-05-07T07:44:43;100521.94;;;22.52;100.00
54808;BME280;40708;50.364;7.550;2023-05-07T07:47:08;100536.72;;;22.64;100.00
54808;BME280;40708;50.364;7.550;2023-05-07T07:49:34;100524.03;;;22.66;100.00
54808;BME280;40708;50.364;7.550;2023-05-07T07:51:59;100518.34;;;23.08;100.00
54808;BME280;40708;50.364;7.550;2023-05-07T07:54:25;100508.03;;;22.97;100.00
54808;BME280;40708;50.364;7.550;2023-05-07T07:56:51;100501.59;;;23.00;100.00
54808;BME280;40708;50.364;7.550;2023-05-07T07:59:17;100510.00;;;22.77;100.00
54808;BME280;40708;50.364;7.550;2023-05-07T08:01:44;100518.88;;;22.60;100.00
54808;BME280;40708;50.364;7.550;2023-05-07T08:04:10;100506.75;;;22.50;100.00
54808;BME280;40708;50.364;7.550;2023-05-07T08:06:35;100505.59;;;22.93;100.00
54808;BME280;40708;50.364;7.550;2023-05-07T08:09:00;100506.66;;;23.25;100.00
54808;BME280;40708;50.364;7.550;2023-05-07T08:11:26;100501.53;;;23.37;100.00
54808;BME280;40708;50.364;7.550;2023-05-07T08:13:54;100476.75;;;23.79;100.00
54808;BME280;40708;50.364;7.550;2023-05-07T08:16:19;100478.16;;;23.86;100.00
54808;BME280;40708;50.364;7.550;2023-05-07T08:18:45;100481.13;;;23.99;100.00
54808;BME280;40708;50.364;7.550;2023-05-07T08:21:10;100466.59;;;24.00;100.00
54808;BME280;40708;50.364;7.550;2023-05-07T08:23:36;100465.88;;;24.62;100.00
54808;BME280;40708;50.364;7.550;2023-05-07T08:26:01;100448.88;;;24.74;100.00
54808;BME280;40708;50.364;7.550;2023-05-07T08:28:26;100446.88;;;24.93;100.00
54808;BME280;40708;50.364;7.550;2023-05-07T08:30:52;100442.69;;;25.77;100.00
54808;BME280;40708;50.364;7.550;2023-05-07T08:33:17;100443.28;;;24.93;100.00
54808;BME280;40708;50.364;7.550;2023-05-07T08:35:42;100447.66;;;24.64;100.00
54808;BME280;40708;50.364;7.550;2023-05-07T08:38:08;100441.34;;;25.10;100.00
54808;BME280;40708;50.364;7.550;2023-05-07T08:40:38;100436.44;;;25.31;100.00
54808;BME280;40708;50.364;7.550;2023-05-07T08:43:05;100436.28;;;25.64;100.00
54808;BME280;40708;50.364;7.550;2023-05-07T08:45:33;100429.81;;;26.23;100.00
54808;BME280;40708;50.364;7.550;2023-05-07T08:48:01;100418.75;;;26.81;100.00
54808;BME280;40708;50.364;7.550;2023-05-07T08:50:27;100423.72;;;27.28;100.00
54808;BME280;40708;50.364;7.550;2023-05-07T08:52:52;100420.84;;;27.16;100.00
54808;BME280;40708;50.364;7.550;2023-05-07T08:55:18;100412.22;;;26.69;100.00
54808;BME280;40708;50.364;7.550;2023-05-07T08:57:43;100426.38;;;26.47;100.00
54808;BME280;40708;50.364;7.550;2023-05-07T09:00:09;100417.94;;;26.52;100.00
54808;BME280;40708;50.364;7.550;2023-05-07T09:02:35;100414.59;;;26.61;100.00
54808;BME280;40708;50.364;7.550;2023-05-07T09:05:01;100421.94;;;26.46;100.00
54808;BME280;40708;50.364;7.550;2023-05-07T09:07:26;100420.66;;;25.95;100.00
54808;BME280;40708;50.364;7.550;2023-05-07T09:09:52;100422.53;;;25.81;100.00
54808;BME280;40708;50.364;7.550;2023-05-07T09:12:19;100422.38;;;25.54;100.00
54808;BME280;40708;50.364;7.550;2023-05-07T09:14:45;100425.09;;;24.95;100.00
54808;BME280;40708;50.364;7.550;2023-05-07T09:17:11;100422.22;;;25.57;100.00
54808;BME280;40708;50.364;7.550;2023-05-07T09:19:36;100421.63;;;25.36;100.00
54808;BME280;40708;50.364;7.550;2023-05-07T09:22:03;100430.47;;;25.40;100.00
54808;BME280;40708;50.364;7.550;2023-05-07T09:24:29;100426.75;;;25.57;100.00
54808;BME280;40708;50.364;7.550;2023-05-07T09:26:59;100419.97;;;25.04;100.00
54808;BME280;40708;50.364;7.550;2023-05-07T09:29:25;100424.16;;;25.39;100.00
54808;BME280;40708;50.364;7.550;2023-05-07T09:31:50;100412.44;;;25.97;100.00
54808;BME280;40708;50.364;7.550;2023-05-07T09:34:16;100402.06;;;26.58;100.00
54808;BME280;40708;50.364;7.550;2023-05-07T09:36:41;100405.41;;;26.90;100.00
54808;BME280;40708;50.364;7.550;2023-05-07T09:39:07;100398.41;;;26.86;100.00
54808;BME280;40708;50.364;7.550;2023-05-07T09:41:32;100403.25;;;26.95;100.00
54808;BME280;40708;50.364;7.550;2023-05-07T09:43:58;100403.13;;;26.97;100.00
54808;BME280;40708;50.364;7.550;2023-05-07T09:46:30;100401.38;;;27.35;100.00
54808;BME280;40708;50.364;7.550;2023-05-07T09:48:57;100394.75;;;28.27;100.00
54808;BME280;40708;50.364;7.550;2023-05-07T09:53:57;100395.22;;;27.46;95.08
54808;BME280;40708;50.364;7.550;2023-05-07T09:56:25;100398.25;;;27.41;99.40
54808;BME280;40708;50.364;7.550;2023-05-07T09:58:54;100391.56;;;27.20;95.84
54808;BME280;40708;50.364;7.550;2023-05-07T10:01:21;100386.72;;;26.98;100.00
54808;BME280;40708;50.364;7.550;2023-05-07T10:03:48;100384.69;;;27.14;97.14
54808;BME280;40708;50.364;7.550;2023-05-07T10:06:15;100388.09;;;26.77;100.00
54808;BME280;40708;50.364;7.550;2023-05-07T10:08:42;100389.66;;;26.54;100.00
54808;BME280;40708;50.364;7.550;2023-05-07T10:11:09;100382.25;;;27.10;99.25
54808;BME280;40708;50.364;7.550;2023-05-07T10:13:34;100384.94;;;26.71;97.38
54808;BME280;40708;50.364;7.550;2023-05-07T10:16:04;100384.94;;;26.44;99.78
54808;BME280;40708;50.364;7.550;2023-05-07T10:18:31;100383.84;;;26.46;100.00
54808;BME280;40708;50.364;7.550;2023-05-07T10:21:18;100385.13;;;26.68;100.00
54808;BME280;40708;50.364;7.550;2023-05-07T10:23:58;100390.69;;;26.11;99.60
54808;BME280;40708;50.364;7.550;2023-05-07T10:26:25;100385.41;;;26.36;98.22
54808;BME280;40708;50.364;7.550;2023-05-07T10:28:59;100380.50;;;25.86;100.00
54808;BME280;40708;50.364;7.550;2023-05-07T10:31:44;100381.13;;;25.48;100.00
54808;BME280;40708;50.364;7.550;2023-05-07T10:34:15;100386.88;;;24.98;100.00
54808;BME280;40708;50.364;7.550;2023-05-07T10:36:42;100382.84;;;25.34;100.00
54808;BME280;40708;50.364;7.550;2023-05-07T10:39:08;100377.47;;;25.19;100.00
54808;BME280;40708;50.364;7.550;2023-05-07T10:41:33;100370.66;;;25.56;100.00
54808;BME280;40708;50.364;7.550;2023-05-07T10:43:59;100378.72;;;25.85;100.00
54808;BME280;40708;50.364;7.550;2023-05-07T10:46:27;100370.59;;;25.85;100.00
54808;BME280;40708;50.364;7.550;2023-05-07T10:49:12;100374.44;;;26.10;100.00
54808;BME280;40708;50.364;7.550;2023-05-07T10:51:38;100369.00;;;26.10;100.00
54808;BME280;40708;50.364;7.550;2023-05-07T10:56:36;100363.50;;;26.25;100.00
54808;BME280;40708;50.364;7.550;2023-05-07T11:02:04;100362.03;;;25.91;100.00
54808;BME280;40708;50.364;7.550;2023-05-07T11:04:32;100371.81;;;25.66;100.00
54808;BME280;40708;50.364;7.550;2023-05-07T11:07:26;100363.31;;;26.00;100.00
54808;BME280;40708;50.364;7.550;2023-05-07T11:15:04;100345.25;;;26.54;100.00
54808;BME280;40708;50.364;7.550;2023-05-07T11:17:30;100358.41;;;26.74;100.00
54808;BME280;40708;50.364;7.550;2023-05-07T11:19:57;100355.59;;;26.35;100.00
54808;BME280;40708;50.364;7.550;2023-05-07T11:24:59;100348.66;;;26.17;100.00
54808;BME280;40708;50.364;7.550;2023-05-07T11:27:26;100354.53;;;26.09;100.00
54808;BME280;40708;50.364;7.550;2023-05-07T11:29:51;100349.47;;;26.31;100.00
54808;BME280;40708;50.364;7.550;2023-05-07T11:32:30;100345.28;;;26.40;100.00
54808;BME280;40708;50.364;7.550;2023-05-07T11:34:57;100351.97;;;25.65;100.00
54808;BME280;40708;50.364;7.550;2023-05-07T11:37:24;100348.84;;;26.14;100.00
54808;BME280;40708;50.364;7.550;2023-05-07T11:39:50;100349.06;;;26.37;100.00
54808;BME280;40708;50.364;7.550;2023-05-07T11:42:33;100352.16;;;26.45;100.00
54808;BME280;40708;50.364;7.550;2023-05-07T11:45:00;100346.72;;;26.72;100.00
54808;BME280;40708;50.364;7.550;2023-05-07T11:47:26;100347.78;;;26.96;100.00
54808;BME280;40708;50.364;7.550;2023-05-07T11:49:53;100341.41;;;26.44;100.00
54808;BME280;40708;50.364;7.550;2023-05-07T11:52:20;100341.97;;;26.49;100.00
54808;BME280;40708;50.364;7.550;2023-05-07T11:54:53;100345.94;;;25.88;100.00
54808;BME280;40708;50.364;7.550;2023-05-07T11:57:20;100341.06;;;26.22;100.00
54808;BME280;40708;50.364;7.550;2023-05-07T11:59:45;100339.25;;;26.49;100.00
54808;BME280;40708;50.364;7.550;2023-05-07T12:02:14;100339.03;;;26.52;100.00
54808;BME280;40708;50.364;7.550;2023-05-07T12:04:40;100338.66;;;26.17;100.00
54808;BME280;40708;50.364;7.550;2023-05-07T12:07:10;100348.91;;;26.12;100.00
54808;BME280;40708;50.364;7.550;2023-05-07T12:09:36;100348.84;;;25.85;100.00
54808;BME280;40708;50.364;7.550;2023-05-07T12:12:04;100356.31;;;25.54;100.00
54808;BME280;40708;50.364;7.550;2023-05-07T12:14:30;100349.03;;;25.96;100.00
54808;BME280;40708;50.364;7.550;2023-05-07T12:16:55;100345.84;;;25.62;100.00
54808;BME280;40708;50.364;7.550;2023-05-07T12:19:21;100340.56;;;26.15;100.00
54808;BME280;40708;50.364;7.550;2023-05-07T12:21:46;100344.19;;;26.16;100.00
54808;BME280;40708;50.364;7.550;2023-05-07T12:24:14;100346.50;;;25.93;100.00
54808;BME280;40708;50.364;7.550;2023-05-07T12:26:39;100350.09;;;26.08;100.00
54808;BME280;40708;50.364;7.550;2023-05-07T12:29:06;100339.03;;;25.97;100.00
54808;BME280;40708;50.364;7.550;2023-05-07T12:31:31;100339.78;;;26.27;100.00
54808;BME280;40708;50.364;7.550;2023-05-07T12:33:56;100350.41;;;25.61;100.00
54808;BME280;40708;50.364;7.550;2023-05-07T12:36:22;100338.47;;;25.78;100.00
54808;BME280;40708;50.364;7.550;2023-05-07T12:38:49;100349.22;;;25.93;100.00
54808;BME280;40708;50.364;7.550;2023-05-07T12:41:15;100350.09;;;25.66;100.00
54808;BME280;40708;50.364;7.550;2023-05-07T12:43:43;100348.69;;;25.44;100.00
54808;BME280;40708;50.364;7.550;2023-05-07T12:46:09;100339.03;;;25.69;100.00
54808;BME280;40708;50.364;7.550;2023-05-07T12:48:38;100341.44;;;25.45;100.00
54808;BME280;40708;50.364;7.550;2023-05-07T12:51:08;100349.84;;;25.26;100.00